Time;durP1;ratioP1;P1;durP2;ratioP2;P2;SDS_P1;SDS_P2;PMS_P1;PMS_P2;Temp;Humidity;BMP_temperature;BMP_pressure;BME280_temperature;BME280_humidity;BME280_pressure;Samples;Min_cycle;Max_cycle;Signal;HPM_P1;HPM_P2
2023/05/28 00:00:10;;;;;;;10.13;6.60;;;;;;;;;;5014434;28;20497;-46
2023/05/28 00:02:36;;;;;;;8.80;7.37;;;;;;;;;;5014095;28;20438;-44
2023/05/28 00:05:02;;;;;;;12.27;6.53;;;;;;;;;;5014304;28;20460;-45
2023/05/28 00:07:28;;;;;;;13.70;6.93;;;;;;;;;;5014186;28;20773;-44
2023/05/28 00:09:58;;;;;;;12.57;7.00;;;;;;;;;;5014333;28;20476;-44
2023/05/28 00:12:24;;;;;;;7.80;6.43;;;;;;;;;;5013886;28;20461;-43
2023/05/28 00:14:50;;;;;;;9.33;6.53;;;;;;;;;;5013072;28;20469;-43
2023/05/28 00:17:17;;;;;;;8.17;6.30;;;;;;;;;;5013488;28;20421;-45
2023/05/28 00:19:43;;;;;;;13.03;6.67;;;;;;;;;;5014009;28;20778;-46
2023/05/28 00:22:09;;;;;;;8.47;6.40;;;;;;;;;;5013753;28;20417;-46
2023/05/28 00:24:35;;;;;;;10.73;5.60;;;;;;;;;;5013830;28;20403;-45
2023/05/28 00:27:02;;;;;;;8.90;6.03;;;;;;;;;;5013853;28;20480;-45
2023/05/28 00:29:29;;;;;;;11.83;5.87;;;;;;;;;;5013865;28;20425;-44
2023/05/28 00:31:57;;;;;;;12.87;7.33;;;;;;;;;;5013715;28;20495;-44
2023/05/28 00:34:24;;;;;;;15.33;8.33;;;;;;;;;;5013407;28;20436;-43
2023/05/28 00:36:50;;;;;;;23.13;9.83;;;;;;;;;;5013647;28;20453;-47
2023/05/28 00:39:16;;;;;;;22.40;9.20;;;;;;;;;;5017486;28;20418;-44
2023/05/28 00:41:42;;;;;;;20.40;9.20;;;;;;;;;;5010619;28;20465;-45
2023/05/28 00:44:12;;;;;;;14.50;8.67;;;;;;;;;;5013612;28;20470;-43
2023/05/28 00:46:40;;;;;;;16.97;7.50;;;;;;;;;;5012860;28;20865;-44
2023/05/28 00:49:06;;;;;;;9.60;6.87;;;;;;;;;;5012627;28;20426;-44
2023/05/28 00:51:33;;;;;;;15.50;7.60;;;;;;;;;;5013159;28;20917;-44
2023/05/28 00:53:59;;;;;;;17.43;7.37;;;;;;;;;;5013146;28;21239;-43
2023/05/28 00:56:26;;;;;;;12.10;6.87;;;;;;;;;;5013355;28;20426;-46
2023/05/28 00:58:52;;;;;;;17.57;7.47;;;;;;;;;;5013323;28;20592;-44
2023/05/28 01:01:18;;;;;;;11.47;7.30;;;;;;;;;;5015152;28;20413;-44
2023/05/28 01:03:46;;;;;;;17.80;8.70;;;;;;;;;;5012193;28;20470;-44
2023/05/28 01:06:14;;;;;;;13.87;8.50;;;;;;;;;;5004895;28;20421;-43
2023/05/28 01:08:41;;;;;;;13.70;7.80;;;;;;;;;;5013165;28;20484;-43
2023/05/28 01:11:09;;;;;;;9.77;7.53;;;;;;;;;;5013098;28;20469;-43
2023/05/28 01:13:36;;;;;;;15.50;7.53;;;;;;;;;;5011852;28;20487;-44
2023/05/28 01:16:02;;;;;;;16.13;8.53;;;;;;;;;;5012844;28;20433;-43
2023/05/28 01:18:30;;;;;;;15.07;8.13;;;;;;;;;;5013231;28;20409;-44
2023/05/28 01:20:56;;;;;;;13.57;8.50;;;;;;;;;;5012848;28;20421;-44
2023/05/28 01:23:24;;;;;;;14.67;7.40;;;;;;;;;;5012611;28;20947;-43
2023/05/28 01:25:51;;;;;;;10.30;6.83;;;;;;;;;;5012879;28;20821;-43
2023/05/28 01:28:17;;;;;;;12.57;7.40;;;;;;;;;;5011824;28;20424;-43
2023/05/28 01:30:43;;;;;;;11.00;6.17;;;;;;;;;;5012610;28;20415;-43
2023/05/28 01:33:11;;;;;;;13.63;7.57;;;;;;;;;;5012319;28;20889;-43
2023/05/28 01:35:37;;;;;;;10.57;7.13;;;;;;;;;;5012768;28;20408;-43
2023/05/28 01:38:04;;;;;;;8.87;6.00;;;;;;;;;;5018500;28;20496;-43
2023/05/28 01:40:31;;;;;;;7.87;6.20;;;;;;;;;;5013041;28;20415;-43
2023/05/28 01:42:57;;;;;;;12.63;7.53;;;;;;;;;;5012135;28;20432;-44
2023/05/28 01:45:24;;;;;;;20.90;10.03;;;;;;;;;;5011650;28;20440;-44
2023/05/28 01:47:50;;;;;;;13.73;8.40;;;;;;;;;;5011584;28;20464;-43
2023/05/28 01:50:17;;;;;;;15.37;7.93;;;;;;;;;;5012453;28;20407;-46
2023/05/28 01:52:44;;;;;;;9.47;7.33;;;;;;;;;;5012161;28;20471;-44
2023/05/28 01:55:11;;;;;;;15.17;7.90;;;;;;;;;;5004363;28;20555;-44
2023/05/28 01:57:37;;;;;;;10.90;7.20;;;;;;;;;;5011206;28;20436;-43
2023/05/28 02:00:04;;;;;;;13.90;6.37;;;;;;;;;;5012516;28;20416;-43
2023/05/28 02:02:30;;;;;;;9.77;6.40;;;;;;;;;;5011978;28;20751;-43
2023/05/28 02:04:56;;;;;;;13.57;8.07;;;;;;;;;;5012207;28;20423;-44
2023/05/28 02:07:22;;;;;;;10.67;5.90;;;;;;;;;;5012218;28;20412;-43
2023/05/28 02:09:48;;;;;;;13.53;7.20;;;;;;;;;;5012125;28;20421;-43
2023/05/28 02:12:15;;;;;;;21.67;12.27;;;;;;;;;;5011629;28;20466;-44
2023/05/28 02:14:41;;;;;;;26.70;11.70;;;;;;;;;;5012069;28;20412;-44
2023/05/28 02:17:09;;;;;;;21.67;10.13;;;;;;;;;;5011935;28;20826;-44
2023/05/28 02:19:34;;;;;;;18.17;8.80;;;;;;;;;;5011974;28;20430;-43
2023/05/28 02:22:00;;;;;;;11.47;7.70;;;;;;;;;;5011934;28;20973;-43
2023/05/28 02:24:26;;;;;;;11.93;7.53;;;;;;;;;;5011769;28;20993;-43
2023/05/28 02:26:52;;;;;;;15.03;8.50;;;;;;;;;;5010690;28;20953;-44
2023/05/28 02:29:18;;;;;;;15.13;9.03;;;;;;;;;;5011165;28;20910;-43
2023/05/28 02:31:44;;;;;;;14.47;7.00;;;;;;;;;;5011745;28;20419;-44
2023/05/28 02:34:10;;;;;;;12.93;6.70;;;;;;;;;;5011522;28;20429;-46
2023/05/28 02:36:36;;;;;;;11.50;6.77;;;;;;;;;;5016594;28;20418;-43
2023/05/28 02:39:03;;;;;;;12.70;7.03;;;;;;;;;;5013917;28;20896;-43
2023/05/28 02:41:29;;;;;;;11.90;6.80;;;;;;;;;;5015825;28;20888;-44
2023/05/28 02:43:55;;;;;;;14.33;6.53;;;;;;;;;;5015365;28;20496;-45
2023/05/28 02:46:21;;;;;;;7.87;5.90;;;;;;;;;;5015634;28;20865;-45
2023/05/28 02:48:47;;;;;;;11.50;7.23;;;;;;;;;;5015653;28;20742;-43
2023/05/28 02:51:13;;;;;;;10.03;6.40;;;;;;;;;;5015849;28;20420;-43
2023/05/28 02:53:39;;;;;;;9.07;6.10;;;;;;;;;;5015393;28;20470;-44
2023/05/28 02:56:05;;;;;;;12.37;7.00;;;;;;;;;;5015535;28;20963;-43
2023/05/28 02:58:32;;;;;;;13.67;7.73;;;;;;;;;;5013515;28;20423;-44
2023/05/28 03:00:58;;;;;;;10.77;7.10;;;;;;;;;;5015550;28;20407;-43
2023/05/28 03:03:24;;;;;;;9.63;7.43;;;;;;;;;;5015216;28;20442;-44
2023/05/28 03:05:51;;;;;;;10.63;6.73;;;;;;;;;;5015449;28;20502;-44
2023/05/28 03:08:17;;;;;;;9.87;6.90;;;;;;;;;;5015412;28;20446;-45
2023/05/28 03:10:43;;;;;;;13.67;6.77;;;;;;;;;;5015304;28;20413;-45
2023/05/28 03:13:09;;;;;;;8.10;6.60;;;;;;;;;;5015107;28;20471;-44
2023/05/28 03:15:35;;;;;;;12.73;6.40;;;;;;;;;;5015328;28;20487;-44
2023/05/28 03:18:01;;;;;;;11.30;6.50;;;;;;;;;;5015100;28;20900;-44
2023/05/28 03:20:28;;;;;;;11.30;7.03;;;;;;;;;;5015292;28;20399;-44
2023/05/28 03:22:57;;;;;;;10.83;6.90;;;;;;;;;;5014768;28;20470;-44
2023/05/28 03:25:24;;;;;;;8.60;6.53;;;;;;;;;;5015120;28;20461;-43
2023/05/28 03:27:50;;;;;;;15.40;6.30;;;;;;;;;;5013087;28;20500;-45
2023/05/28 03:30:16;;;;;;;10.43;7.50;;;;;;;;;;5015016;28;20407;-45
2023/05/28 03:32:42;;;;;;;15.77;6.63;;;;;;;;;;5014611;28;20471;-46
2023/05/28 03:35:09;;;;;;;11.10;6.47;;;;;;;;;;5014883;28;20415;-43
2023/05/28 03:37:35;;;;;;;9.30;7.10;;;;;;;;;;5016658;28;20399;-45
2023/05/28 03:40:00;;;;;;;17.77;7.77;;;;;;;;;;5014973;28;21001;-43
2023/05/28 03:42:26;;;;;;;13.53;7.63;;;;;;;;;;5014549;28;20769;-44
2023/05/28 03:44:52;;;;;;;11.77;7.60;;;;;;;;;;5014794;28;20419;-44
2023/05/28 03:47:18;;;;;;;10.83;6.60;;;;;;;;;;5014660;28;20416;-44
2023/05/28 03:49:46;;;;;;;10.00;7.00;;;;;;;;;;5014689;28;20404;-44
2023/05/28 03:52:12;;;;;;;10.97;7.27;;;;;;;;;;5006820;28;20843;-45
2023/05/28 03:54:38;;;;;;;20.30;7.70;;;;;;;;;;5018822;28;20396;-44
2023/05/28 03:57:04;;;;;;;13.33;6.60;;;;;;;;;;5013634;28;20419;-43
2023/05/28 03:59:29;;;;;;;10.37;6.30;;;;;;;;;;5013352;28;20434;-44
2023/05/28 04:01:55;;;;;;;9.20;6.63;;;;;;;;;;5014297;28;20411;-43
2023/05/28 04:04:21;;;;;;;12.17;7.10;;;;;;;;;;5014218;28;20465;-44
2023/05/28 04:06:47;;;;;;;10.67;7.03;;;;;;;;;;5014262;28;20547;-44
2023/05/28 04:09:14;;;;;;;11.97;6.83;;;;;;;;;;5013686;28;20430;-43
2023/05/28 04:11:40;;;;;;;8.47;6.43;;;;;;;;;;5014178;28;20415;-44
2023/05/28 04:14:06;;;;;;;14.60;7.03;;;;;;;;;;5011215;28;20833;-44
2023/05/28 04:16:32;;;;;;;14.03;6.87;;;;;;;;;;5012449;28;20899;-44
2023/05/28 04:19:00;;;;;;;13.17;7.27;;;;;;;;;;5015639;28;20423;-44
2023/05/28 04:21:28;;;;;;;11.33;7.37;;;;;;;;;;5016751;28;20423;-44
2023/05/28 04:23:56;;;;;;;13.10;6.73;;;;;;;;;;5013674;28;20800;-44
2023/05/28 04:26:22;;;;;;;16.07;7.33;;;;;;;;;;5013590;28;20829;-44
2023/05/28 04:28:48;;;;;;;16.77;6.87;;;;;;;;;;5012769;28;20436;-44
2023/05/28 04:31:14;;;;;;;9.23;6.43;;;;;;;;;;5013398;28;20774;-45
2023/05/28 04:33:40;;;;;;;7.63;5.60;;;;;;;;;;5014854;28;20462;-44
2023/05/28 04:36:13;;;;;;;14.43;7.43;;;;;;;;;;5013674;28;20407;-44
2023/05/28 04:38:39;;;;;;;17.53;7.93;;;;;;;;;;5013769;28;20407;-44
2023/05/28 04:41:05;;;;;;;10.60;6.70;;;;;;;;;;5013577;28;20788;-46
2023/05/28 04:43:33;;;;;;;12.07;8.10;;;;;;;;;;5013426;28;20813;-44
2023/05/28 04:46:03;;;;;;;9.17;6.40;;;;;;;;;;5013658;28;20509;-48
2023/05/28 04:48:31;;;;;;;12.00;6.97;;;;;;;;;;5013469;28;20781;-45
2023/05/28 04:50:57;;;;;;;15.03;7.90;;;;;;;;;;5014115;28;20470;-46
2023/05/28 04:53:23;;;;;;;12.90;7.00;;;;;;;;;;5013206;28;20832;-45
2023/05/28 04:55:50;;;;;;;12.77;7.33;;;;;;;;;;5013537;28;20514;-47
2023/05/28 04:58:17;;;;;;;9.37;6.47;;;;;;;;;;5012612;28;20435;-46
2023/05/28 05:00:43;;;;;;;13.47;6.60;;;;;;;;;;5012962;28;20424;-45
2023/05/28 05:03:09;;;;;;;9.63;6.37;;;;;;;;;;5012838;28;20435;-46
2023/05/28 05:05:35;;;;;;;15.27;7.43;;;;;;;;;;5013585;28;20912;-45
2023/05/28 05:08:01;;;;;;;10.53;6.70;;;;;;;;;;5013297;28;21116;-46
2023/05/28 05:10:27;;;;;;;8.17;6.87;;;;;;;;;;5013177;28;20404;-45
2023/05/28 05:12:53;;;;;;;11.77;7.93;;;;;;;;;;5012729;28;20471;-45
2023/05/28 05:15:19;;;;;;;7.77;5.50;;;;;;;;;;5013278;28;20435;-46
2023/05/28 05:17:46;;;;;;;16.00;7.67;;;;;;;;;;5012820;28;20815;-46
2023/05/28 05:20:13;;;;;;;7.50;6.30;;;;;;;;;;5013047;28;20784;-45
2023/05/28 05:22:39;;;;;;;9.67;6.20;;;;;;;;;;5012902;28;20889;-45
2023/05/28 05:25:05;;;;;;;17.73;8.47;;;;;;;;;;5012405;28;20444;-46
2023/05/28 05:27:31;;;;;;;13.50;7.80;;;;;;;;;;5012909;28;20459;-45
2023/05/28 05:29:57;;;;;;;12.33;8.27;;;;;;;;;;5013100;28;20412;-45
2023/05/28 05:32:22;;;;;;;12.63;7.63;;;;;;;;;;5012663;28;20464;-47
2023/05/28 05:34:48;;;;;;;11.97;7.23;;;;;;;;;;5012701;28;20480;-46
2023/05/28 05:37:14;;;;;;;9.83;7.70;;;;;;;;;;5012647;28;20470;-46
2023/05/28 05:39:40;;;;;;;16.20;8.40;;;;;;;;;;5016172;28;20911;-46
2023/05/28 05:42:06;;;;;;;15.30;8.40;;;;;;;;;;5012488;28;20388;-47
2023/05/28 05:44:32;;;;;;;15.50;8.10;;;;;;;;;;5012541;28;20780;-46
2023/05/28 05:46:58;;;;;;;10.27;7.43;;;;;;;;;;5012385;28;21022;-46
2023/05/28 05:49:24;;;;;;;9.60;7.50;;;;;;;;;;5011629;28;20426;-46
2023/05/28 05:51:50;;;;;;;16.20;9.10;;;;;;;;;;5012343;28;20415;-46
2023/05/28 05:54:18;;;;;;;9.20;7.77;;;;;;;;;;5011441;28;20436;-45
2023/05/28 05:56:44;;;;;;;8.53;5.87;;;;;;;;;;5012431;28;20411;-46
2023/05/28 05:59:10;;;;;;;9.63;7.50;;;;;;;;;;5012380;28;20509;-47
2023/05/28 06:01:36;;;;;;;8.70;5.90;;;;;;;;;;5012227;28;20880;-46
2023/05/28 06:04:02;;;;;;;11.17;8.17;;;;;;;;;;5011966;28;20559;-45
2023/05/28 06:06:28;;;;;;;16.70;7.27;;;;;;;;;;5012263;28;20425;-45
2023/05/28 06:08:54;;;;;;;11.07;7.80;;;;;;;;;;5012474;28;20414;-46
2023/05/28 06:11:22;;;;;;;8.70;6.70;;;;;;;;;;5012354;28;20421;-46
2023/05/28 06:13:48;;;;;;;16.50;7.37;;;;;;;;;;5010869;28;20492;-45
2023/05/28 06:16:14;;;;;;;9.57;7.60;;;;;;;;;;5011377;28;20433;-45
2023/05/28 06:18:40;;;;;;;10.40;8.00;;;;;;;;;;5012060;28;20494;-45
2023/05/28 06:21:07;;;;;;;15.03;8.53;;;;;;;;;;5011998;28;20788;-46
2023/05/28 06:23:34;;;;;;;11.77;8.83;;;;;;;;;;5011688;28;20993;-46
2023/05/28 06:26:03;;;;;;;19.03;9.70;;;;;;;;;;5011972;28;20445;-46
2023/05/28 06:28:29;;;;;;;13.13;9.77;;;;;;;;;;5011903;28;20832;-46
2023/05/28 06:30:56;;;;;;;14.90;10.20;;;;;;;;;;5011934;28;20442;-47
2023/05/28 06:33:22;;;;;;;12.97;10.13;;;;;;;;;;5011759;28;20501;-46
2023/05/28 06:35:48;;;;;;;12.97;9.90;;;;;;;;;;5011914;28;20411;-45
2023/05/28 06:38:14;;;;;;;22.77;11.70;;;;;;;;;;5012178;28;20856;-46
2023/05/28 06:40:40;;;;;;;15.70;9.53;;;;;;;;;;5011073;28;20830;-45
2023/05/28 06:43:06;;;;;;;11.50;9.13;;;;;;;;;;5011483;28;20406;-46
2023/05/28 06:45:32;;;;;;;14.87;10.47;;;;;;;;;;5011767;28;20859;-45
2023/05/28 06:47:59;;;;;;;15.40;9.97;;;;;;;;;;5011777;28;20505;-46
2023/05/28 06:50:25;;;;;;;16.93;9.63;;;;;;;;;;5011739;28;20407;-45
2023/05/28 06:52:51;;;;;;;18.47;10.30;;;;;;;;;;5011701;28;20439;-44
2023/05/28 06:55:17;;;;;;;19.10;10.57;;;;;;;;;;5011801;28;20406;-45
2023/05/28 06:57:44;;;;;;;15.90;10.47;;;;;;;;;;5011654;28;20537;-46
2023/05/28 07:00:14;;;;;;;13.57;9.20;;;;;;;;;;5003659;28;20380;-46
2023/05/28 07:02:40;;;;;;;15.93;9.93;;;;;;;;;;5011422;28;21052;-46
2023/05/28 07:05:07;;;;;;;15.97;8.90;;;;;;;;;;5010064;28;20438;-46
2023/05/28 07:07:33;;;;;;;14.07;9.77;;;;;;;;;;5014479;28;20801;-45
2023/05/28 07:09:59;;;;;;;16.37;9.23;;;;;;;;;;5009758;28;20413;-46
2023/05/28 07:12:25;;;;;;;14.17;8.93;;;;;;;;;;5010751;28;20531;-46
2023/05/28 07:14:51;;;;;;;12.43;8.93;;;;;;;;;;5011467;28;20422;-45
2023/05/28 07:17:17;;;;;;;17.60;9.37;;;;;;;;;;5010356;28;20785;-46
2023/05/28 07:19:43;;;;;;;13.83;9.03;;;;;;;;;;5010469;28;20429;-45
2023/05/28 07:22:09;;;;;;;9.67;7.70;;;;;;;;;;5010755;28;20772;-45
2023/05/28 07:24:35;;;;;;;12.17;8.50;;;;;;;;;;5014917;28;20400;-45
2023/05/28 07:27:01;;;;;;;14.10;7.87;;;;;;;;;;5015030;28;20840;-45
2023/05/28 07:29:27;;;;;;;9.67;7.00;;;;;;;;;;5014781;28;20474;-45
2023/05/28 07:31:56;;;;;;;8.67;7.27;;;;;;;;;;5014536;28;20411;-45
2023/05/28 07:34:22;;;;;;;11.57;6.50;;;;;;;;;;5012831;28;20872;-45
2023/05/28 07:36:48;;;;;;;10.97;6.60;;;;;;;;;;5013943;28;20910;-45
2023/05/28 07:39:14;;;;;;;11.57;6.00;;;;;;;;;;5014899;28;20892;-45
2023/05/28 07:41:40;;;;;;;6.40;5.80;;;;;;;;;;5014775;28;20787;-45
2023/05/28 07:44:08;;;;;;;9.10;5.60;;;;;;;;;;5014626;28;20435;-46
2023/05/28 07:46:35;;;;;;;7.30;6.10;;;;;;;;;;5014733;28;20431;-45
2023/05/28 07:49:02;;;;;;;8.77;5.70;;;;;;;;;;5014758;28;20901;-45
2023/05/28 07:51:28;;;;;;;8.60;4.90;;;;;;;;;;5014811;28;20458;-44
2023/05/28 07:53:54;;;;;;;8.73;5.70;;;;;;;;;;5014207;28;21009;-45
2023/05/28 07:56:24;;;;;;;8.07;5.23;;;;;;;;;;5014852;28;20773;-46
2023/05/28 07:58:51;;;;;;;9.13;5.57;;;;;;;;;;5007654;28;20433;-45
2023/05/28 08:01:17;;;;;;;9.80;4.80;;;;;;;;;;5015752;28;20415;-46
2023/05/28 08:03:43;;;;;;;7.40;5.20;;;;;;;;;;5014417;28;20424;-46
2023/05/28 08:06:09;;;;;;;7.23;5.57;;;;;;;;;;5014444;28;20769;-45
2023/05/28 08:08:35;;;;;;;11.83;6.30;;;;;;;;;;5012358;28;20508;-45
2023/05/28 08:11:01;;;;;;;6.87;5.33;;;;;;;;;;5012892;28;20422;-45
2023/05/28 08:13:27;;;;;;;9.63;5.13;;;;;;;;;;5013972;28;20562;-44
2023/05/28 08:15:53;;;;;;;7.30;4.60;;;;;;;;;;5013725;28;20439;-45
2023/05/28 08:18:19;;;;;;;8.27;4.80;;;;;;;;;;5012309;28;20425;-45
2023/05/28 08:20:45;;;;;;;7.40;4.60;;;;;;;;;;5006650;28;20432;-45
2023/05/28 08:23:11;;;;;;;10.80;5.20;;;;;;;;;;5018040;28;20510;-45
2023/05/28 08:25:36;;;;;;;10.43;5.40;;;;;;;;;;5011568;28;20438;-44
2023/05/28 08:28:04;;;;;;;7.40;4.20;;;;;;;;;;5010193;28;20436;-45
2023/05/28 08:30:30;;;;;;;8.30;4.80;;;;;;;;;;5013218;28;20429;-45
2023/05/28 08:32:56;;;;;;;9.70;4.80;;;;;;;;;;5013597;28;20554;-45
2023/05/28 08:35:22;;;;;;;9.13;4.63;;;;;;;;;;5013979;28;20774;-45
2023/05/28 08:37:49;;;;;;;6.90;5.03;;;;;;;;;;5016289;28;20406;-45
2023/05/28 08:40:15;;;;;;;9.07;5.23;;;;;;;;;;5013797;28;20399;-45
2023/05/28 08:42:41;;;;;;;6.73;3.80;;;;;;;;;;5013524;28;20503;-45
2023/05/28 08:45:07;;;;;;;6.03;4.10;;;;;;;;;;5013629;28;20780;-45
2023/05/28 08:47:34;;;;;;;6.27;4.80;;;;;;;;;;5013836;28;20558;-46
2023/05/28 08:50:05;;;;;;;7.87;4.53;;;;;;;;;;5013792;28;20480;-45
2023/05/28 08:52:32;;;;;;;11.43;4.80;;;;;;;;;;5013058;28;20467;-45
2023/05/28 08:55:00;;;;;;;7.13;5.00;;;;;;;;;;5013447;28;20447;-45
2023/05/28 08:57:26;;;;;;;10.33;4.60;;;;;;;;;;5012595;28;20449;-45
2023/05/28 08:59:53;;;;;;;11.77;4.50;;;;;;;;;;5013255;28;20896;-46
2023/05/28 09:02:24;;;;;;;6.77;4.20;;;;;;;;;;5013619;28;20869;-46
2023/05/28 09:04:51;;;;;;;7.27;4.40;;;;;;;;;;5013208;28;20808;-46
2023/05/28 09:07:17;;;;;;;7.27;3.90;;;;;;;;;;5013350;28;20445;-47
2023/05/28 09:09:43;;;;;;;8.80;3.93;;;;;;;;;;5013254;28;20407;-47
2023/05/28 09:12:15;;;;;;;4.30;3.60;;;;;;;;;;5014609;28;20506;-47
2023/05/28 09:14:45;;;;;;;7.83;4.40;;;;;;;;;;5013966;28;20579;-45
2023/05/28 09:17:13;;;;;;;6.03;3.53;;;;;;;;;;5012856;28;20413;-45
2023/05/28 09:19:39;;;;;;;6.40;4.33;;;;;;;;;;5012348;28;20422;-45
2023/05/28 09:22:05;;;;;;;5.50;3.90;;;;;;;;;;5010315;28;20419;-44
2023/05/28 09:24:32;;;;;;;6.17;3.70;;;;;;;;;;5012847;28;20456;-45
2023/05/28 09:26:58;;;;;;;4.50;3.60;;;;;;;;;;5009126;28;20424;-45
2023/05/28 09:29:25;;;;;;;5.33;3.50;;;;;;;;;;5012274;28;20419;-46
2023/05/28 09:32:00;;;;;;;5.57;3.50;;;;;;;;;;5010860;28;20481;-45
2023/05/28 09:34:30;;;;;;;4.63;3.80;;;;;;;;;;5012635;28;20985;-46
2023/05/28 09:37:02;;;;;;;6.80;3.73;;;;;;;;;;4999827;28;20406;-45
2023/05/28 09:39:29;;;;;;;9.37;3.50;;;;;;;;;;5025754;28;20774;-45
2023/05/28 09:42:03;;;;;;;4.53;3.17;;;;;;;;;;5011369;28;20449;-45
2023/05/28 09:44:34;;;;;;;5.73;3.43;;;;;;;;;;4992718;28;20427;-45
2023/05/28 09:47:00;;;;;;;4.60;3.53;;;;;;;;;;4991918;28;20415;-45
2023/05/28 09:49:32;;;;;;;11.33;3.50;;;;;;;;;;5009484;28;20426;-46
2023/05/28 09:51:59;;;;;;;7.77;3.20;;;;;;;;;;5011412;28;20891;-46
2023/05/28 09:54:31;;;;;;;5.07;3.57;;;;;;;;;;5012264;28;20990;-46
2023/05/28 09:57:02;;;;;;;4.10;3.67;;;;;;;;;;5012236;28;20914;-45
2023/05/28 09:59:29;;;;;;;4.90;3.83;;;;;;;;;;5012406;28;20410;-45
2023/05/28 10:02:09;;;;;;;4.87;3.20;;;;;;;;;;5012456;28;20422;-46
2023/05/28 10:04:37;;;;;;;8.97;3.47;;;;;;;;;;5009873;28;20447;-46
2023/05/28 10:07:05;;;;;;;3.37;2.90;;;;;;;;;;5012253;28;20490;-45
2023/05/28 10:09:32;;;;;;;6.93;3.00;;;;;;;;;;5012260;28;20403;-46
2023/05/28 10:12:13;;;;;;;4.20;3.00;;;;;;;;;;5012171;28;20420;-45
2023/05/28 10:14:39;;;;;;;5.80;3.60;;;;;;;;;;5012243;28;20541;-47
2023/05/28 10:17:07;;;;;;;6.03;4.20;;;;;;;;;;5012075;28;20407;-47
2023/05/28 10:19:35;;;;;;;5.60;3.33;;;;;;;;;;5012108;28;20457;-47
2023/05/28 10:22:01;;;;;;;6.73;3.40;;;;;;;;;;5011921;28;20772;-46
2023/05/28 10:24:27;;;;;;;4.60;3.33;;;;;;;;;;5011942;28;20419;-47
2023/05/28 10:26:56;;;;;;;4.90;4.50;;;;;;;;;;5011900;28;20454;-46
2023/05/28 10:29:22;;;;;;;5.70;3.80;;;;;;;;;;5011217;28;20423;-46
2023/05/28 10:32:01;;;;;;;6.50;3.97;;;;;;;;;;5011066;28;20964;-46
2023/05/28 10:34:30;;;;;;;4.20;3.37;;;;;;;;;;5012191;28;20441;-45
2023/05/28 10:36:56;;;;;;;4.57;3.00;;;;;;;;;;5011844;28;21006;-47
2023/05/28 10:39:22;;;;;;;5.17;3.30;;;;;;;;;;5015259;28;20498;-47
2023/05/28 10:41:49;;;;;;;4.87;2.77;;;;;;;;;;5011776;28;20413;-46
2023/05/28 10:44:15;;;;;;;3.43;3.10;;;;;;;;;;5011687;28;20514;-46
2023/05/28 10:46:41;;;;;;;4.83;2.60;;;;;;;;;;5011633;28;20431;-47
2023/05/28 10:49:08;;;;;;;6.77;3.20;;;;;;;;;;5011737;28;20414;-47
2023/05/28 10:51:43;;;;;;;4.20;3.23;;;;;;;;;;5011834;28;20403;-45
2023/05/28 10:54:36;;;;;;;3.63;2.67;;;;;;;;;;5012198;28;20537;-46
2023/05/28 10:57:18;;;;;;;3.50;2.60;;;;;;;;;;5006605;28;20430;-46
2023/05/28 11:00:00;;;;;;;4.33;3.10;;;;;;;;;;5010509;28;20426;-45
2023/05/28 11:02:47;;;;;;;6.93;3.20;;;;;;;;;;5014624;28;20820;-45
2023/05/28 11:05:13;;;;;;;11.97;3.50;;;;;;;;;;5015156;28;20426;-45
2023/05/28 11:07:42;;;;;;;5.27;3.00;;;;;;;;;;5015489;28;20414;-46
2023/05/28 11:10:09;;;;;;;6.30;3.40;;;;;;;;;;5012134;28;20415;-46
2023/05/28 11:12:38;;;;;;;12.37;2.93;;;;;;;;;;5015154;28;21043;-45
2023/05/28 11:15:05;;;;;;;6.07;2.97;;;;;;;;;;5015265;28;20447;-46
2023/05/28 11:17:36;;;;;;;4.50;3.00;;;;;;;;;;5014201;28;20415;-45
2023/05/28 11:20:02;;;;;;;4.57;3.27;;;;;;;;;;5015103;28;20413;-45
2023/05/28 11:22:34;;;;;;;4.70;3.03;;;;;;;;;;5008779;28;20502;-46
2023/05/28 11:25:05;;;;;;;5.50;2.60;;;;;;;;;;5015780;28;20469;-45
2023/05/28 11:27:33;;;;;;;5.60;3.07;;;;;;;;;;5014530;28;20427;-46
2023/05/28 11:29:59;;;;;;;5.03;2.93;;;;;;;;;;5013354;28;20438;-46
2023/05/28 11:32:26;;;;;;;4.10;2.97;;;;;;;;;;5008845;28;20462;-46
2023/05/28 11:34:53;;;;;;;4.67;3.07;;;;;;;;;;5014834;28;20422;-46
2023/05/28 11:37:27;;;;;;;2.60;2.27;;;;;;;;;;5014942;28;20494;-47
2023/05/28 11:39:54;;;;;;;5.43;2.70;;;;;;;;;;5012708;28;20418;-45
2023/05/28 11:42:20;;;;;;;4.80;3.27;;;;;;;;;;5014810;28;20417;-46
2023/05/28 11:44:47;;;;;;;4.17;2.80;;;;;;;;;;5014056;28;20426;-45
2023/05/28 11:47:13;;;;;;;3.37;2.60;;;;;;;;;;5015119;28;20453;-46
2023/05/28 11:49:41;;;;;;;3.47;2.70;;;;;;;;;;5009897;28;20415;-45
2023/05/28 11:52:19;;;;;;;4.47;2.10;;;;;;;;;;5013995;28;20414;-47
2023/05/28 11:54:46;;;;;;;2.40;2.20;;;;;;;;;;5014417;28;20460;-46
2023/05/28 11:57:17;;;;;;;4.33;2.33;;;;;;;;;;5014526;28;20442;-44
2023/05/28 11:59:54;;;;;;;2.73;2.53;;;;;;;;;;5014273;28;20411;-45
2023/05/28 12:02:23;;;;;;;5.33;2.73;;;;;;;;;;5008100;28;20425;-45
2023/05/28 12:05:00;;;;;;;4.03;2.60;;;;;;;;;;5014659;28;20411;-44
2023/05/28 12:07:30;;;;;;;3.13;2.27;;;;;;;;;;5013645;28;20861;-45
2023/05/28 12:10:04;;;;;;;5.23;2.83;;;;;;;;;;5014879;28;20415;-43
2023/05/28 12:12:31;;;;;;;2.77;2.47;;;;;;;;;;5013347;28;21024;-45
2023/05/28 12:15:01;;;;;;;4.07;2.60;;;;;;;;;;5014537;28;20506;-44
2023/05/28 12:17:28;;;;;;;4.40;3.00;;;;;;;;;;5014636;28;20411;-44
2023/05/28 12:19:54;;;;;;;4.17;2.50;;;;;;;;;;5014447;28;20422;-44
2023/05/28 12:22:20;;;;;;;4.73;2.87;;;;;;;;;;5014223;28;20808;-44
2023/05/28 12:24:50;;;;;;;4.70;2.33;;;;;;;;;;5014433;28;20419;-43
2023/05/28 12:27:17;;;;;;;5.57;3.20;;;;;;;;;;5014358;28;20411;-44
2023/05/28 12:29:43;;;;;;;2.90;2.33;;;;;;;;;;5014528;28;20490;-43
2023/05/28 12:32:09;;;;;;;3.50;3.00;;;;;;;;;;5011148;28;20502;-44
2023/05/28 12:34:36;;;;;;;5.97;2.60;;;;;;;;;;5013456;28;21039;-44
2023/05/28 12:37:03;;;;;;;3.93;2.50;;;;;;;;;;5014284;28;20411;-43
2023/05/28 12:39:29;;;;;;;4.63;2.77;;;;;;;;;;5021184;28;20411;-43
2023/05/28 12:41:55;;;;;;;7.70;3.13;;;;;;;;;;5014044;28;20473;-43
2023/05/28 12:44:23;;;;;;;3.00;2.70;;;;;;;;;;5013858;28;20208;-44
2023/05/28 12:46:52;;;;;;;5.57;3.00;;;;;;;;;;5013560;28;20435;-44
2023/05/28 12:49:19;;;;;;;3.17;2.90;;;;;;;;;;5013819;28;20899;-44
2023/05/28 12:51:45;;;;;;;5.73;2.70;;;;;;;;;;5013958;28;20403;-45
2023/05/28 12:54:11;;;;;;;2.90;2.03;;;;;;;;;;5013551;28;20478;-45
2023/05/28 12:56:37;;;;;;;6.43;3.00;;;;;;;;;;5013739;28;20183;-44
2023/05/28 12:59:03;;;;;;;3.40;2.67;;;;;;;;;;5011157;28;20423;-45
2023/05/28 13:01:29;;;;;;;3.13;2.63;;;;;;;;;;5008749;28;20263;-44
2023/05/28 13:03:55;;;;;;;2.37;2.17;;;;;;;;;;5011711;28;20431;-44
2023/05/28 13:06:21;;;;;;;4.27;2.87;;;;;;;;;;5011237;28;20477;-43
2023/05/28 13:08:47;;;;;;;4.30;2.83;;;;;;;;;;5012387;28;20198;-45
2023/05/28 13:11:14;;;;;;;3.50;2.70;;;;;;;;;;5012509;28;20498;-44
2023/05/28 13:13:40;;;;;;;4.30;3.10;;;;;;;;;;5012601;28;20764;-44
2023/05/28 13:16:10;;;;;;;4.80;2.70;;;;;;;;;;5012581;28;20414;-45
2023/05/28 13:18:36;;;;;;;3.50;2.30;;;;;;;;;;5013842;28;20415;-44
2023/05/28 13:21:02;;;;;;;4.40;2.50;;;;;;;;;;5013010;28;20414;-44
2023/05/28 13:23:28;;;;;;;2.70;2.50;;;;;;;;;;5013064;28;20439;-44
2023/05/28 13:25:54;;;;;;;4.70;2.50;;;;;;;;;;5013304;28;20469;-44
2023/05/28 13:28:20;;;;;;;2.63;2.20;;;;;;;;;;5013274;28;20207;-44
2023/05/28 13:30:46;;;;;;;2.43;2.23;;;;;;;;;;5012239;28;20266;-44
2023/05/28 13:33:12;;;;;;;3.63;2.90;;;;;;;;;;5012039;28;20562;-44
2023/05/28 13:35:39;;;;;;;2.77;2.30;;;;;;;;;;5015809;28;20830;-44
2023/05/28 13:38:06;;;;;;;2.60;2.40;;;;;;;;;;5016652;28;20514;-44
2023/05/28 13:40:33;;;;;;;2.80;2.27;;;;;;;;;;5012810;28;20907;-44
2023/05/28 13:42:59;;;;;;;3.00;2.23;;;;;;;;;;5012935;28;20517;-44
2023/05/28 13:45:25;;;;;;;3.33;2.80;;;;;;;;;;5013001;28;20763;-44
2023/05/28 13:47:55;;;;;;;5.63;2.73;;;;;;;;;;5008436;28;20928;-45
2023/05/28 13:50:22;;;;;;;2.90;2.33;;;;;;;;;;5017436;28;20583;-45
2023/05/28 13:52:48;;;;;;;3.17;2.67;;;;;;;;;;5014779;28;20554;-45
2023/05/28 13:55:14;;;;;;;3.17;2.30;;;;;;;;;;5010085;28;20546;-45
2023/05/28 13:57:40;;;;;;;7.27;2.50;;;;;;;;;;5010956;28;20187;-45
2023/05/28 14:00:09;;;;;;;4.20;2.83;;;;;;;;;;5009880;28;20454;-45
2023/05/28 14:02:35;;;;;;;5.27;2.00;;;;;;;;;;5010880;28;20279;-45
2023/05/28 14:05:02;;;;;;;3.50;2.50;;;;;;;;;;5011907;28;20422;-45
2023/05/28 14:07:28;;;;;;;2.63;2.23;;;;;;;;;;5006870;28;20414;-45
2023/05/28 14:09:54;;;;;;;3.77;2.60;;;;;;;;;;5012613;28;20415;-45
2023/05/28 14:12:21;;;;;;;5.63;2.60;;;;;;;;;;5012315;28;20183;-45
2023/05/28 14:14:47;;;;;;;2.53;2.33;;;;;;;;;;5012666;28;20214;-45
2023/05/28 14:17:13;;;;;;;3.50;2.47;;;;;;;;;;5012838;28;20777;-45
2023/05/28 14:19:40;;;;;;;3.23;2.53;;;;;;;;;;5012914;28;20191;-45
2023/05/28 14:22:06;;;;;;;2.70;2.50;;;;;;;;;;5012610;28;20410;-44
2023/05/28 14:24:33;;;;;;;4.17;2.30;;;;;;;;;;5012384;28;20452;-45
2023/05/28 14:27:01;;;;;;;3.47;3.00;;;;;;;;;;5012434;28;20415;-46
2023/05/28 14:29:29;;;;;;;3.47;2.43;;;;;;;;;;5012515;28;20418;-45
2023/05/28 14:31:55;;;;;;;4.63;2.93;;;;;;;;;;5011356;28;20431;-45
2023/05/28 14:34:21;;;;;;;2.77;2.50;;;;;;;;;;5011528;28;20470;-45